createdAt,value
2019-05-01T00:00:19.404Z,4.3
2019-05-01T00:02:18.926Z,4.9
2019-05-01T00:04:18.350Z,3.8
2019-05-01T00:06:18.088Z,5
2019-05-01T00:08:17.821Z,5.2
2019-05-01T00:10:17.617Z,4.8
2019-05-01T00:12:19.310Z,4.8
2019-05-01T00:14:18.732Z,4.6
2019-05-01T00:16:18.630Z,4.7
2019-05-01T00:18:18.430Z,5.7
2019-05-01T00:20:17.970Z,4.6
2019-05-01T00:22:17.727Z,4.5
2019-05-01T00:24:19.479Z,4.5
2019-05-01T00:26:18.653Z,4.7
2019-05-01T00:28:18.329Z,4.5
2019-05-01T00:30:29.247Z,5.9
2019-05-01T00:32:17.951Z,4.5
2019-05-01T00:34:17.609Z,4.4
2019-05-01T00:36:19.045Z,5.2
2019-05-01T00:38:18.530Z,4.2
2019-05-01T00:40:18.349Z,3.6
2019-05-01T00:42:18.021Z,5.6
2019-05-01T00:44:17.621Z,4.6
2019-05-01T00:46:19.114Z,5.4
2019-05-01T00:48:18.477Z,6.6
2019-05-01T00:50:18.189Z,6.7
2019-05-01T00:52:17.867Z,6.9
2019-05-01T00:54:17.675Z,6.6
2019-05-01T00:56:19.406Z,6.4
2019-05-01T00:58:18.855Z,6.7
2019-05-01T01:00:18.308Z,6.8
2019-05-01T01:02:18.059Z,6.4
2019-05-01T01:04:17.756Z,6.9
2019-05-01T01:06:17.610Z,6.7
2019-05-01T01:08:19.357Z,6.8
2019-05-01T01:10:18.969Z,7.6
2019-05-01T01:12:18.444Z,6.7
2019-05-01T01:14:18.069Z,7.4
2019-05-01T01:16:17.807Z,7.1
2019-05-01T01:18:17.569Z,7.7
2019-05-01T01:20:19.268Z,7.1
2019-05-01T01:22:18.693Z,7.6
2019-05-01T01:24:18.375Z,7.3
2019-05-01T01:26:18.027Z,7
2019-05-01T01:28:17.786Z,8.1
2019-05-01T01:30:17.517Z,8
2019-05-01T01:32:19.343Z,7.7
2019-05-01T01:34:18.825Z,8.5
2019-05-01T01:36:18.402Z,8
2019-05-01T01:38:18.029Z,8.2
2019-05-01T01:40:17.943Z,8.7
2019-05-01T01:42:17.565Z,9.1
2019-05-01T01:44:19.299Z,8.8
2019-05-01T01:46:18.494Z,9.4
2019-05-01T01:48:18.160Z,8.9
2019-05-01T01:50:17.844Z,7.4
2019-05-01T01:52:17.439Z,7.4
2019-05-01T01:54:19.103Z,8.7
2019-05-01T01:56:18.688Z,10.4
2019-05-01T01:58:18.357Z,9.4
2019-05-01T02:00:18.186Z,10.2
2019-05-01T02:02:17.920Z,8.5
2019-05-01T02:04:17.482Z,8.8
2019-05-01T02:06:18.997Z,10.1
2019-05-01T02:08:18.350Z,9.7
2019-05-01T02:10:18.191Z,9.4
2019-05-01T02:12:17.815Z,8.7
2019-05-01T02:14:17.579Z,9.2
2019-05-01T02:16:18.660Z,8.9
2019-05-01T02:18:18.356Z,9.2
2019-05-01T02:20:18.069Z,9.6
2019-05-01T02:22:17.744Z,10.7
2019-05-01T02:24:19.472Z,9.7
2019-05-01T02:26:18.647Z,11
2019-05-01T02:28:18.345Z,10.5
2019-05-01T02:30:18.125Z,10.3
2019-05-01T02:32:17.677Z,10.3
2019-05-01T02:34:17.470Z,11.2
2019-05-01T02:36:19.211Z,11.5
2019-05-01T02:38:18.645Z,9.5
2019-05-01T02:40:18.413Z,11.8
2019-05-01T02:42:17.965Z,10.3
2019-05-01T02:44:17.654Z,10.3
2019-05-01T02:46:19.386Z,12.1
2019-05-01T02:48:18.813Z,9.9
2019-05-01T02:50:18.342Z,11.4
2019-05-01T02:52:18.063Z,11.9
2019-05-01T02:54:17.769Z,12.6
2019-05-01T02:56:17.666Z,10.8
2019-05-01T02:58:19.325Z,11.9
2019-05-01T03:00:18.741Z,11.4
2019-05-01T03:02:18.404Z,11.8
2019-05-01T03:04:18.017Z,12.4
2019-05-01T03:06:17.829Z,12.8
2019-05-01T03:08:19.450Z,11.3
2019-05-01T03:10:18.747Z,12.7
2019-05-01T03:12:18.445Z,11.9
2019-05-01T03:14:18.063Z,11.8
2019-05-01T03:16:17.828Z,13.6
2019-05-01T03:18:17.548Z,13.3
2019-05-01T03:20:19.442Z,14.8
2019-05-01T03:22:18.897Z,14
2019-05-01T03:24:18.333Z,14.1
2019-05-01T03:26:18.161Z,12.7
2019-05-01T03:28:17.809Z,14
2019-05-01T03:30:17.541Z,13.1
2019-05-01T03:32:19.960Z,14.4
2019-05-01T03:34:18.561Z,13.8
2019-05-01T03:36:18.198Z,13.1
2019-05-01T03:38:17.981Z,14.6
2019-05-01T03:40:17.646Z,14.3
2019-05-01T03:42:19.441Z,15
2019-05-01T03:44:18.886Z,14.5
2019-05-01T03:46:18.429Z,15.7
2019-05-01T03:48:18.110Z,15
2019-05-01T03:50:17.966Z,16.1
2019-05-01T03:52:17.592Z,15.9
2019-05-01T03:54:19.289Z,17.5
2019-05-01T03:56:18.584Z,13.9
2019-05-01T03:58:18.177Z,17.1
2019-05-01T04:00:17.841Z,17.2
2019-05-01T04:02:31.997Z,16
2019-05-01T04:04:19.252Z,16.5
2019-05-01T04:06:18.448Z,16.4
2019-05-01T04:08:18.054Z,16.7
2019-05-01T04:10:17.864Z,15.9
2019-05-01T04:12:17.648Z,17.5
2019-05-01T04:14:19.262Z,15.6
2019-05-01T04:16:18.481Z,18.6
2019-05-01T04:18:18.259Z,17.3
2019-05-01T04:20:18.019Z,17.8
2019-05-01T04:22:17.734Z,17
2019-05-01T04:24:19.458Z,18.3
2019-05-01T04:26:18.681Z,19.4
2019-05-01T04:28:18.290Z,17.1
2019-05-01T04:30:18.003Z,16.8
2019-05-01T04:32:17.677Z,16.8
2019-05-01T04:34:19.425Z,15.5
2019-05-01T04:36:18.749Z,18.7
2019-05-01T04:38:18.406Z,17
2019-05-01T04:40:19.143Z,16.9
2019-05-01T04:42:17.990Z,18.4
2019-05-01T04:44:17.635Z,17.8
2019-05-01T04:46:19.503Z,17.5
2019-05-01T04:48:18.986Z,17
2019-05-01T04:50:18.453Z,18.2
2019-05-01T04:52:18.074Z,19.7
2019-05-01T04:54:17.630Z,21.5
2019-05-01T04:56:19.382Z,19.3
2019-05-01T04:58:18.821Z,20.2
2019-05-01T05:00:18.311Z,19.4
2019-05-01T05:02:17.924Z,16.9
2019-05-01T05:04:17.489Z,17.5
2019-05-01T05:06:19.001Z,18.2
2019-05-01T05:08:18.367Z,19.1
2019-05-01T05:10:18.035Z,20.9
2019-05-01T05:12:17.710Z,21.7
2019-05-01T05:14:19.449Z,19.3
2019-05-01T05:16:18.657Z,15.8
2019-05-01T05:18:18.321Z,18.2
2019-05-01T05:20:17.983Z,17.7
2019-05-01T05:22:17.707Z,17.5
2019-05-01T05:24:17.407Z,17.9
2019-05-01T05:26:18.895Z,21.4
2019-05-01T05:28:18.312Z,22.7
2019-05-01T05:30:18.091Z,21.1
2019-05-01T05:32:17.745Z,19.6
2019-05-01T05:34:19.408Z,15.5
2019-05-01T05:36:18.742Z,20.1
2019-05-01T05:38:18.492Z,19.9
2019-05-01T05:40:18.206Z,19.9
2019-05-01T05:42:17.951Z,20.1
2019-05-01T05:44:17.623Z,19.7
2019-05-01T05:46:19.426Z,20.2
2019-05-01T05:48:18.773Z,20.1
2019-05-01T05:50:18.412Z,20.2
2019-05-01T05:52:18.203Z,20.9
2019-05-01T05:54:17.779Z,21.1
2019-05-01T05:56:17.615Z,19.6
2019-05-01T05:58:19.353Z,19.1
2019-05-01T06:00:18.855Z,20.2
2019-05-01T06:02:18.314Z,20.8
2019-05-01T06:04:17.946Z,19.1
2019-05-01T06:06:17.713Z,20.4
2019-05-01T06:08:19.473Z,20
2019-05-01T06:10:23.101Z,19.5
2019-05-01T06:12:18.398Z,21.2
2019-05-01T06:14:18.064Z,20.8
2019-05-01T06:16:17.787Z,20.2
2019-05-01T06:18:17.468Z,19.9
2019-05-01T06:20:20.745Z,20.1
2019-05-01T06:22:18.288Z,23.3
2019-05-01T06:24:18.080Z,23
2019-05-01T06:26:17.861Z,20.8
2019-05-01T06:28:19.733Z,18.6
2019-05-01T06:30:19.220Z,18.9
2019-05-01T06:32:18.617Z,19.7
2019-05-01T06:34:18.271Z,21.5
2019-05-01T06:36:17.921Z,18.8
2019-05-01T06:38:17.589Z,19.8
2019-05-01T06:40:22.418Z,16.8
2019-05-01T06:42:19.014Z,19.4
2019-05-01T06:44:18.421Z,19.6
2019-05-01T06:46:21.918Z,21.2
2019-05-01T06:48:18.843Z,22.6
2019-05-01T06:50:17.566Z,21.6
2019-05-01T06:52:19.320Z,23.2
2019-05-01T06:54:18.728Z,19.2
2019-05-01T06:56:18.480Z,20.1
2019-05-01T06:58:20.307Z,21.4
2019-05-01T07:00:17.838Z,20.3
2019-05-01T07:02:17.453Z,21.7
2019-05-01T07:04:19.148Z,21
2019-05-01T07:06:18.627Z,21.3
2019-05-01T07:08:24.560Z,21.7
2019-05-01T07:10:29.650Z,19.1
2019-05-01T07:12:17.616Z,21.6
2019-05-01T07:14:19.411Z,21.1
2019-05-01T07:16:18.685Z,21.4
2019-05-01T07:18:18.691Z,18.9
2019-05-01T07:20:18.261Z,21.2
2019-05-01T07:22:17.741Z,20.4
2019-05-01T07:24:19.372Z,19.1
2019-05-01T07:26:18.935Z,19.5
2019-05-01T07:28:18.410Z,22.1
2019-05-01T07:30:19.587Z,20.2
2019-05-01T07:32:17.881Z,20.3
2019-05-01T07:34:17.534Z,19.4
2019-05-01T07:36:18.761Z,19.7
2019-05-01T07:38:18.441Z,21.6
2019-05-01T07:40:20.681Z,18.3
2019-05-01T07:42:18.043Z,21.1
2019-05-01T07:44:17.640Z,20.1
2019-05-01T07:46:19.574Z,19
2019-05-01T07:48:18.914Z,18.9
2019-05-01T07:50:18.371Z,19.8
2019-05-01T07:52:18.745Z,19.4
2019-05-01T07:54:17.707Z,18.8
2019-05-01T07:56:17.476Z,21
2019-05-01T07:58:19.142Z,18.2
2019-05-01T08:00:18.613Z,18.7
2019-05-01T08:02:18.279Z,18.2
2019-05-01T08:04:18.386Z,17.6
2019-05-01T08:06:21.425Z,18.5
2019-05-01T08:08:19.414Z,19
2019-05-01T08:10:20.898Z,18.3
2019-05-01T08:12:18.799Z,16.7
2019-05-01T08:14:18.587Z,16.6
2019-05-01T08:16:17.671Z,15.6
2019-05-01T08:18:19.458Z,16.4
2019-05-01T08:20:18.445Z,17.4
2019-05-01T08:22:18.084Z,16.2
2019-05-01T08:24:22.460Z,15.9
2019-05-01T08:26:17.562Z,15.5
2019-05-01T08:28:19.299Z,15.8
2019-05-01T08:30:18.748Z,15.2
2019-05-01T08:32:18.245Z,16.6
2019-05-01T08:34:20.607Z,16.2
2019-05-01T08:36:17.658Z,15.9
2019-05-01T08:38:19.432Z,14.9
2019-05-01T08:40:20.423Z,14.9
2019-05-01T08:42:18.397Z,15.8
2019-05-01T08:44:18.022Z,15.5
2019-05-01T08:46:17.807Z,15.3
2019-05-01T08:48:19.476Z,14.1
2019-05-01T08:50:19.807Z,14.1
2019-05-01T08:52:18.580Z,14.5
2019-05-01T08:54:18.286Z,16.1
2019-05-01T08:56:21.835Z,14.9
2019-05-01T08:58:17.887Z,14.4
2019-05-01T09:00:17.732Z,14.7
2019-05-01T09:02:19.416Z,13.9
2019-05-01T09:04:18.938Z,15.3
2019-05-01T09:06:18.501Z,14.8
2019-05-01T09:08:18.167Z,14.5
2019-05-01T09:10:21.522Z,14.6
2019-05-01T09:12:17.573Z,15.4
2019-05-01T09:14:19.279Z,14.5
2019-05-01T09:16:19.239Z,15.4
2019-05-01T09:18:18.915Z,16
2019-05-01T09:20:17.979Z,16.4
2019-05-01T09:22:17.744Z,12.7
2019-05-01T09:24:22.997Z,15.4
2019-05-01T09:26:18.466Z,12.9
2019-05-01T09:28:18.133Z,15.2
2019-05-01T09:30:21.703Z,13.6
2019-05-01T09:32:18.760Z,13
2019-05-01T09:34:20.986Z,14.9
2019-05-01T09:36:18.549Z,13.9
2019-05-01T09:38:18.295Z,13.2
2019-05-01T09:40:18.102Z,13.1
2019-05-01T09:42:22.556Z,14.9
2019-05-01T09:44:19.438Z,15.5
2019-05-01T09:46:18.702Z,13
2019-05-01T09:48:18.395Z,12.3
2019-05-01T09:50:18.132Z,11.5
2019-05-01T09:52:18.812Z,13.2
2019-05-01T09:54:17.421Z,13.3
2019-05-01T09:56:18.979Z,13.8
2019-05-01T09:58:18.430Z,13.3
2019-05-01T10:00:18.193Z,13.1
2019-05-01T10:02:17.822Z,13
2019-05-01T10:04:17.483Z,12.4
2019-05-01T10:06:18.818Z,12.9
2019-05-01T10:08:18.276Z,12.4
2019-05-01T10:10:18.102Z,11.8
2019-05-01T10:12:17.754Z,12.4
2019-05-01T10:14:19.455Z,12.2
2019-05-01T10:16:18.993Z,12.4
2019-05-01T10:18:18.419Z,11.9
2019-05-01T10:20:18.108Z,12.2
2019-05-01T10:22:17.730Z,12.7
2019-05-01T10:24:19.500Z,11.6
2019-05-01T10:26:23.478Z,12.9
2019-05-01T10:28:18.323Z,11.5
2019-05-01T10:30:18.165Z,10.7
2019-05-01T10:32:21.535Z,11.6
2019-05-01T10:34:17.447Z,10.9
2019-05-01T10:36:20.612Z,12
2019-05-01T10:38:18.677Z,11.8
2019-05-01T10:40:18.396Z,10.3
2019-05-01T10:42:18.091Z,11.6
2019-05-01T10:44:17.662Z,11.6
2019-05-01T10:46:19.405Z,11.4
2019-05-01T10:48:18.852Z,10.8
2019-05-01T10:50:18.348Z,11.1
2019-05-01T10:52:18.163Z,10.1
2019-05-01T10:54:17.843Z,12
2019-05-01T10:56:17.601Z,11.4
2019-05-01T10:58:20.277Z,10.7
2019-05-01T11:00:18.865Z,8.5
2019-05-01T11:02:18.302Z,10.6
2019-05-01T11:04:17.956Z,10.7
2019-05-01T11:06:17.628Z,11.7
2019-05-01T11:08:19.382Z,11.5
2019-05-01T11:10:18.714Z,10.8
2019-05-01T11:12:18.193Z,8.9
2019-05-01T11:14:17.793Z,10.4
2019-05-01T11:16:17.496Z,9.6
2019-05-01T11:18:18.672Z,9.4
2019-05-01T11:20:18.331Z,10
2019-05-01T11:22:18.141Z,8.8
2019-05-01T11:24:17.805Z,9.2
2019-05-01T11:26:17.535Z,8.7
2019-05-01T11:28:19.307Z,8.5
2019-05-01T11:30:18.801Z,8.9
2019-05-01T11:32:18.585Z,9.9
2019-05-01T11:34:18.248Z,9.1
2019-05-01T11:36:17.994Z,9.3
2019-05-01T11:38:17.667Z,9.2
2019-05-01T11:40:19.501Z,8.7
2019-05-01T11:42:18.440Z,9.9
2019-05-01T11:44:18.229Z,9.2
2019-05-01T11:46:17.930Z,9.3
2019-05-01T11:48:17.671Z,9.3
2019-05-01T11:50:19.471Z,10
2019-05-01T11:52:18.933Z,9.5
2019-05-01T11:54:18.380Z,9.9
2019-05-01T11:56:18.154Z,9.5
2019-05-01T11:58:17.877Z,9.4
2019-05-01T12:00:19.544Z,9.1
2019-05-01T12:02:18.527Z,7.6
2019-05-01T12:04:18.223Z,9.2
2019-05-01T12:06:22.810Z,8.9
2019-05-01T12:08:17.530Z,9.5
2019-05-01T12:10:18.944Z,9.2
2019-05-01T12:12:18.375Z,9.1
2019-05-01T12:14:17.980Z,8.6
2019-05-01T12:16:17.808Z,8.8
2019-05-01T12:18:19.336Z,9.1
2019-05-01T12:20:18.837Z,8.2
2019-05-01T12:22:18.253Z,8.3
2019-05-01T12:24:17.896Z,8.7
2019-05-01T12:26:17.644Z,8.7
2019-05-01T12:28:17.461Z,8.4
2019-05-01T12:30:19.265Z,7.3
2019-05-01T12:32:18.636Z,7.6
2019-05-01T12:34:18.406Z,7.1
2019-05-01T12:36:18.099Z,8
2019-05-01T12:38:17.751Z,7
2019-05-01T12:40:17.509Z,7.2
2019-05-01T12:42:19.277Z,7.9
2019-05-01T12:44:18.711Z,6.5
2019-05-01T12:46:18.395Z,7.9
2019-05-01T12:48:17.974Z,7.4
2019-05-01T12:50:17.606Z,7.5
2019-05-01T12:52:19.388Z,7.3
2019-05-01T12:54:18.770Z,7.8
2019-05-01T12:56:18.339Z,8.1
2019-05-01T12:58:17.979Z,6.8
2019-05-01T13:00:17.684Z,6.6
2019-05-01T13:02:18.458Z,5.2
2019-05-01T13:04:18.919Z,5.4
2019-05-01T13:06:18.478Z,6.1
2019-05-01T13:08:18.235Z,5.3
2019-05-01T13:10:17.956Z,6.3
2019-05-01T13:12:17.700Z,6.7
2019-05-01T13:14:19.423Z,5.6
2019-05-01T13:16:17.731Z,6.8
2019-05-01T13:18:17.503Z,6.5
2019-05-01T13:20:17.105Z,5.6
2019-05-01T13:22:17.764Z,7
2019-05-01T13:24:19.471Z,6.1
2019-05-01T13:26:17.720Z,4.8
2019-05-01T13:28:17.418Z,5.4
2019-05-01T13:30:17.311Z,6.4
2019-05-01T13:32:16.934Z,5.2
2019-05-01T13:34:16.590Z,5.8
2019-05-01T13:36:18.191Z,5.4
2019-05-01T13:38:17.684Z,5.4
2019-05-01T13:40:17.437Z,5
2019-05-01T13:42:17.081Z,4.5
2019-05-01T13:44:16.736Z,4.6
2019-05-01T13:46:16.468Z,4.6
2019-05-01T13:48:18.293Z,4.9
2019-05-01T13:50:17.974Z,5
2019-05-01T13:52:17.442Z,5.3
2019-05-01T13:54:17.080Z,5.2
2019-05-01T13:56:16.875Z,4.9
2019-05-01T13:58:16.532Z,5.2
2019-05-01T14:00:18.327Z,5.5
2019-05-01T14:02:17.776Z,4.1
2019-05-01T14:04:17.397Z,4.9
2019-05-01T14:06:17.217Z,6.1
2019-05-01T14:08:16.688Z,5.5
2019-05-01T14:10:18.514Z,4.4
2019-05-01T14:12:18.085Z,4.7
2019-05-01T14:14:17.564Z,2.9
2019-05-01T14:16:17.187Z,4.5
2019-05-01T14:18:16.922Z,4.1
2019-05-01T14:20:16.674Z,3.8
2019-05-01T14:22:18.438Z,4.2
2019-05-01T14:24:17.916Z,3.9
2019-05-01T14:26:17.482Z,3.6
2019-05-01T14:28:17.197Z,3.4
2019-05-01T14:30:16.797Z,3.6
2019-05-01T14:32:16.472Z,4.6
2019-05-01T14:34:18.279Z,5.5
2019-05-01T14:36:17.503Z,3.1
2019-05-01T14:38:17.291Z,4.5
2019-05-01T14:40:17.102Z,3.2
2019-05-01T14:42:16.820Z,2.7
2019-05-01T14:44:18.495Z,3
2019-05-01T14:46:18.074Z,2.6
2019-05-01T14:48:17.551Z,3.1
2019-05-01T14:50:17.383Z,3.7
2019-05-01T14:52:17.213Z,3.2
2019-05-01T14:54:16.875Z,3.1
2019-05-01T14:56:16.514Z,3.2
2019-05-01T14:58:18.355Z,3
2019-05-01T15:00:18.370Z,3.3
2019-05-01T15:02:16.876Z,2.9
2019-05-01T15:04:16.564Z,3.5
2019-05-01T15:06:18.133Z,2.9
2019-05-01T15:08:17.584Z,3.2
2019-05-01T15:10:17.339Z,2.8
2019-05-01T15:12:17.096Z,2.6
2019-05-01T15:14:16.632Z,3.4
2019-05-01T15:16:18.121Z,2.2
2019-05-01T15:18:17.653Z,2.9
2019-05-01T15:20:17.462Z,2.8
2019-05-01T15:22:17.144Z,2.8
2019-05-01T15:24:16.785Z,3.2
2019-05-01T15:26:16.552Z,2.4
2019-05-01T15:28:18.368Z,2.1
2019-05-01T15:30:17.919Z,2.7
2019-05-01T15:32:17.405Z,1.8
2019-05-01T15:34:17.084Z,2.9
2019-05-01T15:36:16.882Z,2.9
2019-05-01T15:38:16.549Z,3.5
2019-05-01T15:40:18.098Z,2.3
2019-05-01T15:42:17.574Z,3.1
2019-05-01T15:44:17.401Z,2.5
2019-05-01T15:46:17.238Z,1.8
2019-05-01T15:48:16.876Z,2.5
2019-05-01T15:50:16.606Z,2
2019-05-01T15:52:18.361Z,1.6
2019-05-01T15:54:17.806Z,1.5
2019-05-01T15:56:17.572Z,2.7
2019-05-01T15:58:17.089Z,1.9
2019-05-01T16:00:16.774Z,2.4
2019-05-01T16:02:16.575Z,2.2
2019-05-01T16:04:18.374Z,1.6
2019-05-01T16:06:17.644Z,1.6
2019-05-01T16:08:17.222Z,1.5
2019-05-01T16:10:16.912Z,2
2019-05-01T16:12:16.738Z,1.4
2019-05-01T16:14:18.467Z,3.3
2019-05-01T16:16:17.750Z,2
2019-05-01T16:18:17.424Z,1.7
2019-05-01T16:20:17.157Z,1.6
2019-05-01T16:22:16.817Z,1.1
2019-05-01T16:24:16.538Z,1.5
2019-05-01T16:26:17.631Z,1.4
2019-05-01T16:28:17.270Z,1.8
2019-05-01T16:30:16.966Z,1.8
2019-05-01T16:32:16.635Z,1.2
2019-05-01T16:34:18.383Z,1.6
2019-05-01T16:36:20.260Z,1.2
2019-05-01T16:38:22.868Z,1.5
2019-05-01T16:40:17.111Z,1.4
2019-05-01T16:42:16.780Z,1.3
2019-05-01T16:44:18.506Z,1.4
2019-05-01T16:46:17.792Z,1.4
2019-05-01T16:48:18.421Z,1.3
2019-05-01T16:50:17.177Z,1.4
2019-05-01T16:52:16.752Z,1.3
2019-05-01T16:54:18.515Z,1.1
2019-05-01T16:56:17.838Z,1
2019-05-01T16:58:17.317Z,1.4
2019-05-01T17:00:16.981Z,1.5
2019-05-01T17:02:16.658Z,1.9
2019-05-01T17:04:18.308Z,1.7
2019-05-01T17:06:18.580Z,1.4
2019-05-01T17:08:17.262Z,1.3
2019-05-01T17:10:17.056Z,1
2019-05-01T17:12:18.473Z,0.9
2019-05-01T17:14:17.126Z,1.5
2019-05-01T17:16:16.790Z,1.7
2019-05-01T17:18:17.429Z,1.4
2019-05-01T17:20:19.227Z,2
2019-05-01T17:22:17.695Z,1.4
2019-05-01T17:24:18.380Z,1.4
2019-05-01T17:26:18.135Z,1.8
2019-05-01T17:28:17.720Z,1.5
2019-05-01T17:30:19.582Z,0.8
2019-05-01T17:32:18.991Z,1.2
2019-05-01T17:34:18.441Z,1.2
2019-05-01T17:36:18.192Z,1
2019-05-01T17:38:17.735Z,1
2019-05-01T17:40:19.478Z,0.8
2019-05-01T17:42:18.951Z,1.1
2019-05-01T17:44:19.946Z,1
2019-05-01T17:46:18.111Z,1.2
2019-05-01T17:48:17.759Z,1.3
2019-05-01T17:50:21.000Z,1.2
2019-05-01T17:52:18.718Z,0.9
2019-05-01T17:54:18.300Z,1
2019-05-01T17:56:19.643Z,0.6
2019-05-01T17:58:17.586Z,1.1
2019-05-01T18:00:19.287Z,1
2019-05-01T18:02:18.742Z,0.8
2019-05-01T18:04:18.476Z,0.7
2019-05-01T18:06:18.138Z,0.9
2019-05-01T18:08:17.903Z,1
2019-05-01T18:10:17.689Z,0.7
2019-05-01T18:12:23.258Z,0.5
2019-05-01T18:14:19.052Z,1
2019-05-01T18:16:18.598Z,0.8
2019-05-01T18:18:18.228Z,1
2019-05-01T18:20:18.004Z,0.5
2019-05-01T18:22:17.850Z,0.9
2019-05-01T18:24:18.813Z,0.6
2019-05-01T18:26:19.426Z,0.8
2019-05-01T18:28:18.766Z,0.8
2019-05-01T18:30:20.450Z,0.9
2019-05-01T18:32:18.253Z,0.7
2019-05-01T18:34:17.899Z,1
2019-05-01T18:36:19.819Z,0.5
2019-05-01T18:38:19.416Z,1
2019-05-01T18:40:18.693Z,0.6
2019-05-01T18:42:18.364Z,1.3
2019-05-01T18:44:17.997Z,0.8
2019-05-01T18:46:17.695Z,1.1
2019-05-01T18:48:19.467Z,0.8
2019-05-01T18:50:19.008Z,0.7
2019-05-01T18:52:18.470Z,0.8
2019-05-01T18:54:18.100Z,1.2
2019-05-01T18:56:17.827Z,0.6
2019-05-01T18:58:17.568Z,0.7
2019-05-01T19:00:19.313Z,1.1
2019-05-01T19:02:20.349Z,0.8
2019-05-01T19:04:23.244Z,0.8
2019-05-01T19:06:18.274Z,1.2
2019-05-01T19:08:16.827Z,0.7
2019-05-01T19:10:17.642Z,1.1
2019-05-01T19:12:19.429Z,0.9
2019-05-01T19:14:18.919Z,1.1
2019-05-01T19:16:18.534Z,0.9
2019-05-01T19:18:18.311Z,0.4
2019-05-01T19:20:18.034Z,0.7
2019-05-01T19:22:17.771Z,1.3
2019-05-01T19:24:17.410Z,0.8
2019-05-01T19:26:18.924Z,0.8
2019-05-01T19:28:18.418Z,1.4
2019-05-01T19:30:18.206Z,0.7
2019-05-01T19:32:17.951Z,1
2019-05-01T19:34:17.498Z,0.9
2019-05-01T19:36:19.079Z,1.2
2019-05-01T19:38:18.563Z,1.2
2019-05-01T19:40:18.347Z,1.5
2019-05-01T19:42:21.456Z,0.8
2019-05-01T19:44:18.691Z,1.8
2019-05-01T19:46:19.496Z,1.4
2019-05-01T19:48:18.914Z,2.1
2019-05-01T19:50:18.371Z,2.2
2019-05-01T19:52:18.205Z,2
2019-05-01T19:54:17.910Z,1.8
2019-05-01T19:56:21.381Z,2.5
2019-05-01T19:58:19.336Z,2.2
2019-05-01T20:00:18.901Z,1.9
2019-05-01T20:02:21.997Z,2.2
2019-05-01T20:04:17.976Z,2.2
2019-05-01T20:06:17.755Z,1.5
2019-05-01T20:08:17.536Z,2.6
2019-05-01T20:10:19.100Z,2.2
2019-05-01T20:12:18.489Z,2
2019-05-01T20:14:18.142Z,3
2019-05-01T20:16:17.872Z,2.8
2019-05-01T20:18:17.581Z,2.8
2019-05-01T20:20:19.343Z,2.5
2019-05-01T20:22:18.764Z,2.4
2019-05-01T20:24:19.225Z,2.8
2019-05-01T20:26:18.167Z,2.7
2019-05-01T20:28:19.869Z,2.5
2019-05-01T20:30:17.509Z,3
2019-05-01T20:32:21.007Z,2.7
2019-05-01T20:34:18.844Z,2.6
2019-05-01T20:36:18.384Z,2.5
2019-05-01T20:38:18.024Z,2.7
2019-05-01T20:40:17.722Z,2.3
2019-05-01T20:42:19.309Z,2.9
2019-05-01T20:44:23.740Z,2.7
2019-05-01T20:46:21.169Z,3
2019-05-01T20:48:18.362Z,2.8
2019-05-01T20:50:17.663Z,2
2019-05-01T20:52:17.473Z,3
2019-05-01T20:54:19.208Z,2.4
2019-05-01T20:56:18.753Z,2.4
2019-05-01T20:58:18.536Z,2.2
2019-05-01T21:00:18.595Z,2.6
2019-05-01T21:02:17.861Z,2.7
2019-05-01T21:04:17.583Z,2.7
2019-05-01T21:06:19.085Z,2.3
2019-05-01T21:08:18.532Z,2.9
2019-05-01T21:10:24.734Z,2.8
2019-05-01T21:12:17.919Z,2.5
2019-05-01T21:14:22.503Z,2.5
2019-05-01T21:16:18.951Z,2.8
2019-05-01T21:18:20.807Z,2.6
2019-05-01T21:20:18.072Z,3.1
2019-05-01T21:22:17.740Z,2.8
2019-05-01T21:24:19.503Z,2.5
2019-05-01T21:26:18.491Z,2.6
2019-05-01T21:28:18.176Z,2.4
2019-05-01T21:30:17.918Z,3
2019-05-01T21:32:18.150Z,3.2
2019-05-01T21:34:19.220Z,2.4
2019-05-01T21:36:18.665Z,2.7
2019-05-01T21:38:18.314Z,2.2
2019-05-01T21:40:18.107Z,2.8
2019-05-01T21:42:17.796Z,2.7
2019-05-01T21:44:17.482Z,3.2
2019-05-01T21:46:19.219Z,2.6
2019-05-01T21:48:18.672Z,2.8
2019-05-01T21:50:22.688Z,2.3
2019-05-01T21:52:22.393Z,1.9
2019-05-01T21:54:20.582Z,2.9
2019-05-01T21:56:19.475Z,2.5
2019-05-01T21:58:21.010Z,2.7
2019-05-01T22:00:19.973Z,2.5
2019-05-01T22:02:18.182Z,2.5
2019-05-01T22:04:17.834Z,2.5
2019-05-01T22:06:17.538Z,2.7
2019-05-01T22:08:19.095Z,2.9
2019-05-01T22:10:21.488Z,2.6
2019-05-01T22:12:18.234Z,2.8
2019-05-01T22:14:17.843Z,3.2
2019-05-01T22:16:18.301Z,2.8
2019-05-01T22:18:19.420Z,2.8
2019-05-01T22:20:18.925Z,2.9
2019-05-01T22:22:18.366Z,2.1
2019-05-01T22:24:17.915Z,2.8
2019-05-01T22:26:17.506Z,2.8
2019-05-01T22:28:20.007Z,2.8
2019-05-01T22:30:18.497Z,2.8
2019-05-01T22:32:18.255Z,2.9
2019-05-01T22:34:17.850Z,3.7
2019-05-01T22:36:17.627Z,3
2019-05-01T22:38:19.293Z,3
2019-05-01T22:40:18.795Z,2.9
2019-05-01T22:42:18.474Z,3.3
2019-05-01T22:44:19.680Z,3.6
2019-05-01T22:46:17.862Z,4.6
2019-05-01T22:48:17.540Z,4.2
2019-05-01T22:50:19.254Z,4.1
2019-05-01T22:52:18.617Z,3.3
2019-05-01T22:54:18.398Z,4.4
2019-05-01T22:56:18.086Z,4.9
2019-05-01T22:58:17.654Z,4.3
2019-05-01T23:00:19.513Z,4.4
2019-05-01T23:02:18.599Z,4.8
2019-05-01T23:04:18.978Z,5
2019-05-01T23:06:17.898Z,5.6
2019-05-01T23:08:17.494Z,4.8
2019-05-01T23:10:19.136Z,5
2019-05-01T23:12:18.565Z,4.8
2019-05-01T23:14:18.310Z,5.1
2019-05-01T23:16:18.005Z,4.1
2019-05-01T23:18:17.662Z,5.7
2019-05-01T23:20:19.430Z,3.7
2019-05-01T23:22:18.829Z,4.1
2019-05-01T23:24:18.252Z,3.9
2019-05-01T23:26:18.584Z,4.6
2019-05-01T23:28:17.592Z,3.8
2019-05-01T23:30:19.556Z,5.2
2019-05-01T23:32:19.022Z,4.6
2019-05-01T23:34:21.067Z,4.8
2019-05-01T23:36:23.471Z,5.4
2019-05-01T23:38:17.702Z,5.1
2019-05-01T23:40:17.521Z,4.6
2019-05-01T23:42:19.164Z,4.9
2019-05-01T23:44:18.600Z,5
2019-05-01T23:46:18.394Z,5.5
2019-05-01T23:48:18.090Z,4.7
2019-05-01T23:50:17.812Z,5.2
2019-05-01T23:52:17.580Z,5
2019-05-01T23:54:19.328Z,5.5
2019-05-01T23:56:18.866Z,5.4
2019-05-01T23:58:18.304Z,5.7
